sensor_id;sensor_type;location;lat;lon;timestamp;P1;durP1;ratioP1;P2;durP2;ratioP2
75169;SDS011;63749;49.186;9.222;2023-05-10T00:01:41;3.00;;;1.80;;
75169;SDS011;63749;49.186;9.222;2023-05-10T00:04:07;2.77;;;1.57;;
75169;SDS011;63749;49.186;9.222;2023-05-10T00:06:32;5.05;;;1.60;;
75169;SDS011;63749;49.186;9.222;2023-05-10T00:08:58;3.20;;;1.40;;
75169;SDS011;63749;49.186;9.222;2023-05-10T00:11:23;2.47;;;1.30;;
75169;SDS011;63749;49.186;9.222;2023-05-10T00:13:49;2.30;;;1.23;;
75169;SDS011;63749;49.186;9.222;2023-05-10T00:16:14;2.65;;;1.15;;
75169;SDS011;63749;49.186;9.222;2023-05-10T00:18:40;3.13;;;1.40;;
75169;SDS011;63749;49.186;9.222;2023-05-10T00:21:05;5.40;;;1.50;;
75169;SDS011;63749;49.186;9.222;2023-05-10T00:23:31;3.55;;;1.52;;
75169;SDS011;63749;49.186;9.222;2023-05-10T00:25:56;4.23;;;1.50;;
75169;SDS011;63749;49.186;9.222;2023-05-10T00:28:22;4.40;;;1.80;;
75169;SDS011;63749;49.186;9.222;2023-05-10T00:30:47;4.95;;;1.50;;
75169;SDS011;63749;49.186;9.222;2023-05-10T00:33:12;2.70;;;1.40;;
75169;SDS011;63749;49.186;9.222;2023-05-10T00:35:38;2.67;;;1.40;;
75169;SDS011;63749;49.186;9.222;2023-05-10T00:38:03;1.93;;;1.40;;
75169;SDS011;63749;49.186;9.222;2023-05-10T00:40:29;2.65;;;1.50;;
75169;SDS011;63749;49.186;9.222;2023-05-10T00:42:55;3.22;;;1.55;;
75169;SDS011;63749;49.186;9.222;2023-05-10T00:45:21;2.27;;;1.70;;
75169;SDS011;63749;49.186;9.222;2023-05-10T00:47:46;1.90;;;1.48;;
75169;SDS011;63749;49.186;9.222;2023-05-10T00:50:12;2.50;;;1.83;;
75169;SDS011;63749;49.186;9.222;2023-05-10T00:52:38;2.67;;;2.10;;
75169;SDS011;63749;49.186;9.222;2023-05-10T00:55:04;2.70;;;2.23;;
75169;SDS011;63749;49.186;9.222;2023-05-10T00:57:30;4.15;;;2.70;;
75169;SDS011;63749;49.186;9.222;2023-05-10T00:59:56;3.33;;;3.03;;
75169;SDS011;63749;49.186;9.222;2023-05-10T01:02:22;4.22;;;3.20;;
75169;SDS011;63749;49.186;9.222;2023-05-10T01:04:48;5.07;;;3.60;;
75169;SDS011;63749;49.186;9.222;2023-05-10T01:07:14;5.40;;;3.45;;
75169;SDS011;63749;49.186;9.222;2023-05-10T01:09:39;5.13;;;3.60;;
75169;SDS011;63749;49.186;9.222;2023-05-10T01:12:05;4.70;;;3.80;;
75169;SDS011;63749;49.186;9.222;2023-05-10T01:14:32;6.03;;;4.07;;
75169;SDS011;63749;49.186;9.222;2023-05-10T01:16:58;5.15;;;4.10;;
75169;SDS011;63749;49.186;9.222;2023-05-10T01:19:26;4.40;;;3.90;;
75169;SDS011;63749;49.186;9.222;2023-05-10T01:21:56;5.25;;;4.20;;
75169;SDS011;63749;49.186;9.222;2023-05-10T01:24:46;5.43;;;3.97;;
75169;SDS011;63749;49.186;9.222;2023-05-10T01:33:01;4.27;;;2.90;;
75169;SDS011;63749;49.186;9.222;2023-05-10T01:46:33;4.67;;;3.40;;
75169;SDS011;63749;49.186;9.222;2023-05-10T01:49:02;3.50;;;3.00;;
75169;SDS011;63749;49.186;9.222;2023-05-10T01:51:31;3.65;;;2.85;;
75169;SDS011;63749;49.186;9.222;2023-05-10T01:54:04;3.13;;;2.60;;
75169;SDS011;63749;49.186;9.222;2023-05-10T01:56:31;3.28;;;2.80;;
75169;SDS011;63749;49.186;9.222;2023-05-10T01:58:58;4.40;;;3.00;;
75169;SDS011;63749;49.186;9.222;2023-05-10T02:01:28;5.10;;;3.08;;
75169;SDS011;63749;49.186;9.222;2023-05-10T02:03:54;3.53;;;2.88;;
75169;SDS011;63749;49.186;9.222;2023-05-10T02:06:22;3.60;;;3.03;;
75169;SDS011;63749;49.186;9.222;2023-05-10T02:08:49;3.30;;;2.85;;
75169;SDS011;63749;49.186;9.222;2023-05-10T02:11:16;3.83;;;2.90;;
75169;SDS011;63749;49.186;9.222;2023-05-10T02:13:43;3.42;;;2.90;;
75169;SDS011;63749;49.186;9.222;2023-05-10T02:16:10;3.10;;;2.80;;
75169;SDS011;63749;49.186;9.222;2023-05-10T02:18:36;3.55;;;2.97;;
75169;SDS011;63749;49.186;9.222;2023-05-10T02:21:02;3.37;;;3.00;;
75169;SDS011;63749;49.186;9.222;2023-05-10T02:23:28;3.60;;;2.70;;
75169;SDS011;63749;49.186;9.222;2023-05-10T02:25:55;3.97;;;3.08;;
75169;SDS011;63749;49.186;9.222;2023-05-10T02:28:22;3.70;;;3.10;;
75169;SDS011;63749;49.186;9.222;2023-05-10T02:30:49;4.35;;;2.80;;
75169;SDS011;63749;49.186;9.222;2023-05-10T02:33:17;3.40;;;3.00;;
75169;SDS011;63749;49.186;9.222;2023-05-10T02:35:44;3.72;;;2.92;;
75169;SDS011;63749;49.186;9.222;2023-05-10T02:38:11;4.25;;;3.05;;
75169;SDS011;63749;49.186;9.222;2023-05-10T02:40:38;3.30;;;3.00;;
75169;SDS011;63749;49.186;9.222;2023-05-10T02:43:05;4.35;;;2.90;;
75169;SDS011;63749;49.186;9.222;2023-05-10T02:45:34;3.73;;;3.30;;
75169;SDS011;63749;49.186;9.222;2023-05-10T02:48:01;4.22;;;3.28;;
75169;SDS011;63749;49.186;9.222;2023-05-10T02:50:27;4.63;;;3.70;;
75169;SDS011;63749;49.186;9.222;2023-05-10T02:52:56;5.32;;;3.10;;
75169;SDS011;63749;49.186;9.222;2023-05-10T02:55:26;4.53;;;3.17;;
75169;SDS011;63749;49.186;9.222;2023-05-10T02:57:58;4.40;;;3.28;;
75169;SDS011;63749;49.186;9.222;2023-05-10T03:00:25;7.60;;;3.20;;
75169;SDS011;63749;49.186;9.222;2023-05-10T03:02:51;6.15;;;3.10;;
75169;SDS011;63749;49.186;9.222;2023-05-10T03:05:16;5.10;;;3.30;;
75169;SDS011;63749;49.186;9.222;2023-05-10T03:07:42;4.70;;;3.50;;
75169;SDS011;63749;49.186;9.222;2023-05-10T03:10:08;5.25;;;3.65;;
75169;SDS011;63749;49.186;9.222;2023-05-10T03:17:54;4.57;;;3.42;;
75169;SDS011;63749;49.186;9.222;2023-05-10T03:21:04;4.63;;;3.30;;
75169;SDS011;63749;49.186;9.222;2023-05-10T03:23:22;4.25;;;3.25;;
75169;SDS011;63749;49.186;9.222;2023-05-10T03:26:00;5.33;;;3.67;;
75169;SDS011;63749;49.186;9.222;2023-05-10T03:28:27;4.82;;;3.35;;
75169;SDS011;63749;49.186;9.222;2023-05-10T03:30:53;5.45;;;3.60;;
75169;SDS011;63749;49.186;9.222;2023-05-10T03:33:20;4.30;;;3.72;;
75169;SDS011;63749;49.186;9.222;2023-05-10T03:35:45;4.50;;;3.87;;
75169;SDS011;63749;49.186;9.222;2023-05-10T03:38:11;5.05;;;4.10;;
75169;SDS011;63749;49.186;9.222;2023-05-10T03:40:37;4.97;;;4.10;;
75169;SDS011;63749;49.186;9.222;2023-05-10T03:43:03;5.15;;;4.10;;
75169;SDS011;63749;49.186;9.222;2023-05-10T03:45:29;6.47;;;4.20;;
75169;SDS011;63749;49.186;9.222;2023-05-10T03:47:55;5.33;;;4.40;;
75169;SDS011;63749;49.186;9.222;2023-05-10T03:50:22;6.70;;;4.60;;
75169;SDS011;63749;49.186;9.222;2023-05-10T03:52:47;8.20;;;4.80;;
75169;SDS011;63749;49.186;9.222;2023-05-10T03:55:12;6.07;;;5.10;;
75169;SDS011;63749;49.186;9.222;2023-05-10T03:57:38;6.47;;;5.03;;
75169;SDS011;63749;49.186;9.222;2023-05-10T04:00:03;8.00;;;5.87;;
75169;SDS011;63749;49.186;9.222;2023-05-10T04:02:29;8.05;;;5.60;;
75169;SDS011;63749;49.186;9.222;2023-05-10T04:04:55;8.03;;;5.87;;
75169;SDS011;63749;49.186;9.222;2023-05-10T04:07:21;9.68;;;6.45;;
75169;SDS011;63749;49.186;9.222;2023-05-10T04:09:46;9.40;;;6.60;;
75169;SDS011;63749;49.186;9.222;2023-05-10T04:12:12;8.95;;;6.65;;
75169;SDS011;63749;49.186;9.222;2023-05-10T04:14:37;9.53;;;6.77;;
75169;SDS011;63749;49.186;9.222;2023-05-10T04:17:02;9.43;;;7.07;;
75169;SDS011;63749;49.186;9.222;2023-05-10T04:19:31;12.80;;;7.73;;
75169;SDS011;63749;49.186;9.222;2023-05-10T04:21:56;10.02;;;7.22;;
75169;SDS011;63749;49.186;9.222;2023-05-10T04:24:23;14.77;;;7.68;;
75169;SDS011;63749;49.186;9.222;2023-05-10T04:26:48;8.80;;;6.70;;
75169;SDS011;63749;49.186;9.222;2023-05-10T04:29:14;11.23;;;6.77;;
75169;SDS011;63749;49.186;9.222;2023-05-10T04:31:39;9.90;;;6.70;;
75169;SDS011;63749;49.186;9.222;2023-05-10T04:34:04;10.40;;;6.95;;
75169;SDS011;63749;49.186;9.222;2023-05-10T04:36:30;8.77;;;6.87;;
75169;SDS011;63749;49.186;9.222;2023-05-10T04:38:57;11.85;;;6.80;;
75169;SDS011;63749;49.186;9.222;2023-05-10T04:41:23;9.00;;;7.03;;
75169;SDS011;63749;49.186;9.222;2023-05-10T04:43:49;11.20;;;7.38;;
75169;SDS011;63749;49.186;9.222;2023-05-10T04:46:15;11.07;;;7.10;;
75169;SDS011;63749;49.186;9.222;2023-05-10T04:48:40;12.90;;;7.50;;
75169;SDS011;63749;49.186;9.222;2023-05-10T04:51:05;10.40;;;7.50;;
75169;SDS011;63749;49.186;9.222;2023-05-10T04:53:31;9.80;;;7.45;;
75169;SDS011;63749;49.186;9.222;2023-05-10T04:55:57;11.43;;;7.60;;
75169;SDS011;63749;49.186;9.222;2023-05-10T04:58:22;8.80;;;7.10;;
75169;SDS011;63749;49.186;9.222;2023-05-10T05:00:47;9.23;;;7.18;;
75169;SDS011;63749;49.186;9.222;2023-05-10T05:03:13;8.73;;;7.20;;
75169;SDS011;63749;49.186;9.222;2023-05-10T05:05:38;10.83;;;7.40;;
75169;SDS011;63749;49.186;9.222;2023-05-10T05:08:04;10.53;;;7.03;;
75169;SDS011;63749;49.186;9.222;2023-05-10T05:10:29;9.32;;;6.85;;
75169;SDS011;63749;49.186;9.222;2023-05-10T05:12:55;9.20;;;7.40;;
75169;SDS011;63749;49.186;9.222;2023-05-10T05:15:20;9.25;;;7.20;;
75169;SDS011;63749;49.186;9.222;2023-05-10T05:17:46;8.43;;;6.93;;
75169;SDS011;63749;49.186;9.222;2023-05-10T05:20:11;11.77;;;6.60;;
75169;SDS011;63749;49.186;9.222;2023-05-10T05:22:37;9.63;;;6.45;;
75169;SDS011;63749;49.186;9.222;2023-05-10T05:25:03;9.15;;;6.53;;
75169;SDS011;63749;49.186;9.222;2023-05-10T05:27:29;8.17;;;6.40;;
75169;SDS011;63749;49.186;9.222;2023-05-10T05:29:56;15.05;;;6.63;;
75169;SDS011;63749;49.186;9.222;2023-05-10T05:32:22;7.07;;;5.93;;
75169;SDS011;63749;49.186;9.222;2023-05-10T05:34:48;9.07;;;6.45;;
75169;SDS011;63749;49.186;9.222;2023-05-10T05:37:17;7.85;;;5.80;;
75169;SDS011;63749;49.186;9.222;2023-05-10T05:39:44;9.07;;;6.13;;
75169;SDS011;63749;49.186;9.222;2023-05-10T05:42:09;7.68;;;6.05;;
75169;SDS011;63749;49.186;9.222;2023-05-10T05:44:35;10.85;;;6.00;;
75169;SDS011;63749;49.186;9.222;2023-05-10T05:47:01;7.43;;;5.60;;
75169;SDS011;63749;49.186;9.222;2023-05-10T05:49:26;8.37;;;5.17;;
75169;SDS011;63749;49.186;9.222;2023-05-10T05:51:51;7.37;;;5.40;;
75169;SDS011;63749;49.186;9.222;2023-05-10T05:54:17;6.83;;;5.30;;
75169;SDS011;63749;49.186;9.222;2023-05-10T05:56:42;8.97;;;4.80;;
75169;SDS011;63749;49.186;9.222;2023-05-10T05:59:09;6.13;;;4.40;;
75169;SDS011;63749;49.186;9.222;2023-05-10T06:01:34;8.02;;;4.57;;
75169;SDS011;63749;49.186;9.222;2023-05-10T06:04:00;5.33;;;4.53;;
75169;SDS011;63749;49.186;9.222;2023-05-10T06:06:25;5.88;;;3.83;;
75169;SDS011;63749;49.186;9.222;2023-05-10T06:08:51;5.63;;;4.40;;
75169;SDS011;63749;49.186;9.222;2023-05-10T06:11:17;5.07;;;3.90;;
75169;SDS011;63749;49.186;9.222;2023-05-10T06:13:42;6.83;;;3.97;;
75169;SDS011;63749;49.186;9.222;2023-05-10T06:16:08;7.10;;;4.40;;
75169;SDS011;63749;49.186;9.222;2023-05-10T06:18:33;5.77;;;3.90;;
75169;SDS011;63749;49.186;9.222;2023-05-10T06:20:58;8.23;;;4.17;;
75169;SDS011;63749;49.186;9.222;2023-05-10T06:23:24;7.57;;;4.20;;
75169;SDS011;63749;49.186;9.222;2023-05-10T06:25:50;5.53;;;3.83;;
75169;SDS011;63749;49.186;9.222;2023-05-10T06:28:16;5.80;;;3.95;;
75169;SDS011;63749;49.186;9.222;2023-05-10T06:30:41;5.60;;;3.70;;
75169;SDS011;63749;49.186;9.222;2023-05-10T06:33:06;5.17;;;3.60;;
75169;SDS011;63749;49.186;9.222;2023-05-10T06:35:32;5.83;;;4.30;;
75169;SDS011;63749;49.186;9.222;2023-05-10T06:37:58;4.30;;;3.55;;
75169;SDS011;63749;49.186;9.222;2023-05-10T06:40:23;4.43;;;3.50;;
75169;SDS011;63749;49.186;9.222;2023-05-10T06:42:49;5.47;;;3.53;;
75169;SDS011;63749;49.186;9.222;2023-05-10T06:45:14;3.30;;;2.90;;
75169;SDS011;63749;49.186;9.222;2023-05-10T06:47:40;5.53;;;2.80;;
75169;SDS011;63749;49.186;9.222;2023-05-10T06:50:09;4.17;;;2.67;;
75169;SDS011;63749;49.186;9.222;2023-05-10T06:52:36;4.20;;;2.80;;
75169;SDS011;63749;49.186;9.222;2023-05-10T06:55:02;6.03;;;2.75;;
75169;SDS011;63749;49.186;9.222;2023-05-10T06:57:28;5.72;;;2.60;;
75169;SDS011;63749;49.186;9.222;2023-05-10T06:59:53;4.67;;;2.87;;
75169;SDS011;63749;49.186;9.222;2023-05-10T07:02:20;7.95;;;2.80;;
75169;SDS011;63749;49.186;9.222;2023-05-10T07:04:47;7.03;;;2.80;;
75169;SDS011;63749;49.186;9.222;2023-05-10T07:07:13;4.28;;;2.50;;
75169;SDS011;63749;49.186;9.222;2023-05-10T07:09:39;3.93;;;2.60;;
75169;SDS011;63749;49.186;9.222;2023-05-10T07:12:05;6.25;;;2.83;;
75169;SDS011;63749;49.186;9.222;2023-05-10T07:14:30;3.90;;;2.80;;
75169;SDS011;63749;49.186;9.222;2023-05-10T07:16:55;4.00;;;2.70;;
75169;SDS011;63749;49.186;9.222;2023-05-10T07:19:21;4.73;;;2.73;;
75169;SDS011;63749;49.186;9.222;2023-05-10T07:21:46;4.07;;;2.70;;
75169;SDS011;63749;49.186;9.222;2023-05-10T07:24:12;3.13;;;2.67;;
75169;SDS011;63749;49.186;9.222;2023-05-10T07:26:37;5.50;;;2.50;;
75169;SDS011;63749;49.186;9.222;2023-05-10T07:29:02;4.50;;;2.77;;
75169;SDS011;63749;49.186;9.222;2023-05-10T07:31:28;4.25;;;2.60;;
75169;SDS011;63749;49.186;9.222;2023-05-10T07:33:53;3.87;;;2.10;;
75169;SDS011;63749;49.186;9.222;2023-05-10T07:36:18;3.53;;;2.27;;
75169;SDS011;63749;49.186;9.222;2023-05-10T07:38:44;2.77;;;2.10;;
75169;SDS011;63749;49.186;9.222;2023-05-10T07:41:10;2.63;;;2.10;;
75169;SDS011;63749;49.186;9.222;2023-05-10T07:43:38;2.70;;;2.20;;
75169;SDS011;63749;49.186;9.222;2023-05-10T07:46:04;2.97;;;2.25;;
75169;SDS011;63749;49.186;9.222;2023-05-10T07:48:30;2.57;;;2.00;;
75169;SDS011;63749;49.186;9.222;2023-05-10T07:50:56;2.30;;;1.80;;
75169;SDS011;63749;49.186;9.222;2023-05-10T07:53:21;3.07;;;1.97;;
75169;SDS011;63749;49.186;9.222;2023-05-10T07:55:50;3.23;;;1.63;;
75169;SDS011;63749;49.186;9.222;2023-05-10T07:58:16;2.93;;;1.60;;
75169;SDS011;63749;49.186;9.222;2023-05-10T08:00:42;3.80;;;1.90;;
75169;SDS011;63749;49.186;9.222;2023-05-10T08:03:07;2.83;;;1.50;;
75169;SDS011;63749;49.186;9.222;2023-05-10T08:05:32;3.63;;;1.50;;
75169;SDS011;63749;49.186;9.222;2023-05-10T08:07:58;2.40;;;1.50;;
75169;SDS011;63749;49.186;9.222;2023-05-10T08:10:24;2.42;;;1.70;;
75169;SDS011;63749;49.186;9.222;2023-05-10T08:12:50;2.55;;;1.92;;
75169;SDS011;63749;49.186;9.222;2023-05-10T08:15:15;6.20;;;1.90;;
75169;SDS011;63749;49.186;9.222;2023-05-10T08:17:41;2.93;;;1.70;;
75169;SDS011;63749;49.186;9.222;2023-05-10T08:20:06;2.10;;;1.50;;
75169;SDS011;63749;49.186;9.222;2023-05-10T08:22:32;2.17;;;1.67;;
75169;SDS011;63749;49.186;9.222;2023-05-10T08:24:58;6.13;;;2.17;;
75169;SDS011;63749;49.186;9.222;2023-05-10T08:27:23;2.77;;;1.50;;
75169;SDS011;63749;49.186;9.222;2023-05-10T08:29:48;2.10;;;1.60;;
75169;SDS011;63749;49.186;9.222;2023-05-10T08:32:14;1.88;;;1.50;;
75169;SDS011;63749;49.186;9.222;2023-05-10T08:34:39;2.13;;;1.70;;
75169;SDS011;63749;49.186;9.222;2023-05-10T08:37:04;4.30;;;1.50;;
75169;SDS011;63749;49.186;9.222;2023-05-10T08:39:33;3.17;;;1.60;;
75169;SDS011;63749;49.186;9.222;2023-05-10T08:42:00;2.15;;;1.70;;
75169;SDS011;63749;49.186;9.222;2023-05-10T08:44:27;3.50;;;1.67;;
75169;SDS011;63749;49.186;9.222;2023-05-10T08:46:53;2.63;;;1.60;;
75169;SDS011;63749;49.186;9.222;2023-05-10T08:49:19;5.45;;;1.85;;
75169;SDS011;63749;49.186;9.222;2023-05-10T08:51:47;2.67;;;1.80;;
75169;SDS011;63749;49.186;9.222;2023-05-10T08:54:16;4.88;;;1.92;;
75169;SDS011;63749;49.186;9.222;2023-05-10T08:56:42;3.33;;;1.80;;
75169;SDS011;63749;49.186;9.222;2023-05-10T08:59:07;5.30;;;1.80;;
75169;SDS011;63749;49.186;9.222;2023-05-10T09:01:33;5.20;;;1.80;;
75169;SDS011;63749;49.186;9.222;2023-05-10T09:04:01;4.38;;;1.90;;
75169;SDS011;63749;49.186;9.222;2023-05-10T09:06:27;4.35;;;1.85;;
75169;SDS011;63749;49.186;9.222;2023-05-10T09:08:53;2.90;;;1.70;;
75169;SDS011;63749;49.186;9.222;2023-05-10T09:11:19;6.13;;;2.00;;
75169;SDS011;63749;49.186;9.222;2023-05-10T09:13:46;5.43;;;1.50;;
75169;SDS011;63749;49.186;9.222;2023-05-10T09:16:15;2.80;;;1.67;;
75169;SDS011;63749;49.186;9.222;2023-05-10T09:18:40;4.80;;;1.70;;
75169;SDS011;63749;49.186;9.222;2023-05-10T09:21:06;2.83;;;1.63;;
75169;SDS011;63749;49.186;9.222;2023-05-10T09:23:31;2.60;;;1.90;;
75169;SDS011;63749;49.186;9.222;2023-05-10T09:26:04;2.35;;;1.80;;
75169;SDS011;63749;49.186;9.222;2023-05-10T09:28:33;3.00;;;1.60;;
75169;SDS011;63749;49.186;9.222;2023-05-10T09:31:14;4.47;;;1.83;;
75169;SDS011;63749;49.186;9.222;2023-05-10T09:33:46;2.47;;;1.80;;
75169;SDS011;63749;49.186;9.222;2023-05-10T09:36:12;3.50;;;1.80;;
75169;SDS011;63749;49.186;9.222;2023-05-10T09:38:48;4.10;;;1.83;;
75169;SDS011;63749;49.186;9.222;2023-05-10T09:41:22;2.33;;;1.50;;
75169;SDS011;63749;49.186;9.222;2023-05-10T09:43:48;4.90;;;1.77;;
75169;SDS011;63749;49.186;9.222;2023-05-10T09:46:14;2.40;;;1.30;;
75169;SDS011;63749;49.186;9.222;2023-05-10T09:48:47;1.70;;;1.48;;
75169;SDS011;63749;49.186;9.222;2023-05-10T09:51:19;2.58;;;1.50;;
75169;SDS011;63749;49.186;9.222;2023-05-10T09:53:45;2.45;;;1.70;;
75169;SDS011;63749;49.186;9.222;2023-05-10T09:56:11;4.13;;;1.83;;
75169;SDS011;63749;49.186;9.222;2023-05-10T09:58:36;6.60;;;1.80;;
75169;SDS011;63749;49.186;9.222;2023-05-10T10:01:05;2.30;;;1.80;;
75169;SDS011;63749;49.186;9.222;2023-05-10T10:03:40;2.30;;;2.00;;
75169;SDS011;63749;49.186;9.222;2023-05-10T10:06:07;2.63;;;2.10;;
75169;SDS011;63749;49.186;9.222;2023-05-10T10:08:33;3.88;;;2.20;;
75169;SDS011;63749;49.186;9.222;2023-05-10T10:10:59;2.77;;;2.10;;
75169;SDS011;63749;49.186;9.222;2023-05-10T10:13:24;2.17;;;1.92;;
75169;SDS011;63749;49.186;9.222;2023-05-10T10:15:50;2.20;;;2.00;;
75169;SDS011;63749;49.186;9.222;2023-05-10T10:18:17;2.08;;;1.60;;
75169;SDS011;63749;49.186;9.222;2023-05-10T10:20:42;2.50;;;1.80;;
75169;SDS011;63749;49.186;9.222;2023-05-10T10:23:08;3.53;;;1.60;;
75169;SDS011;63749;49.186;9.222;2023-05-10T10:25:33;2.85;;;1.48;;
75169;SDS011;63749;49.186;9.222;2023-05-10T10:28:16;3.17;;;1.70;;
75169;SDS011;63749;49.186;9.222;2023-05-10T10:30:49;2.90;;;1.73;;
75169;SDS011;63749;49.186;9.222;2023-05-10T10:36:14;3.83;;;1.57;;
75169;SDS011;63749;49.186;9.222;2023-05-10T10:41:27;4.30;;;1.98;;
75169;SDS011;63749;49.186;9.222;2023-05-10T10:52:36;3.38;;;1.98;;
75169;SDS011;63749;49.186;9.222;2023-05-10T10:55:04;2.50;;;1.70;;
75169;SDS011;63749;49.186;9.222;2023-05-10T11:02:44;4.47;;;2.10;;
75169;SDS011;63749;49.186;9.222;2023-05-10T11:07:54;2.55;;;1.80;;
75169;SDS011;63749;49.186;9.222;2023-05-10T11:10:21;2.35;;;1.88;;
75169;SDS011;63749;49.186;9.222;2023-05-10T11:12:51;3.20;;;1.88;;
75169;SDS011;63749;49.186;9.222;2023-05-10T11:15:34;6.90;;;1.80;;
75169;SDS011;63749;49.186;9.222;2023-05-10T11:18:16;2.33;;;1.67;;
75169;SDS011;63749;49.186;9.222;2023-05-10T11:20:42;2.63;;;1.65;;
75169;SDS011;63749;49.186;9.222;2023-05-10T11:23:11;2.00;;;1.70;;
75169;SDS011;63749;49.186;9.222;2023-05-10T11:25:41;2.25;;;1.55;;
75169;SDS011;63749;49.186;9.222;2023-05-10T11:28:08;3.47;;;1.67;;
75169;SDS011;63749;49.186;9.222;2023-05-10T11:30:34;2.33;;;1.50;;
75169;SDS011;63749;49.186;9.222;2023-05-10T11:33:01;3.47;;;1.50;;
75169;SDS011;63749;49.186;9.222;2023-05-10T11:35:27;3.03;;;1.57;;
75169;SDS011;63749;49.186;9.222;2023-05-10T11:37:53;1.63;;;1.38;;
75169;SDS011;63749;49.186;9.222;2023-05-10T11:40:18;1.97;;;1.40;;
75169;SDS011;63749;49.186;9.222;2023-05-10T11:42:44;12.05;;;1.42;;
75169;SDS011;63749;49.186;9.222;2023-05-10T11:45:10;2.87;;;1.40;;
75169;SDS011;63749;49.186;9.222;2023-05-10T11:47:36;2.45;;;1.20;;
75169;SDS011;63749;49.186;9.222;2023-05-10T11:50:02;2.60;;;1.30;;
75169;SDS011;63749;49.186;9.222;2023-05-10T11:52:27;2.30;;;1.20;;
75169;SDS011;63749;49.186;9.222;2023-05-10T11:54:54;4.70;;;1.10;;
75169;SDS011;63749;49.186;9.222;2023-05-10T11:57:20;1.85;;;1.30;;
75169;SDS011;63749;49.186;9.222;2023-05-10T11:59:53;2.38;;;1.20;;
75169;SDS011;63749;49.186;9.222;2023-05-10T12:02:20;3.45;;;1.55;;
75169;SDS011;63749;49.186;9.222;2023-05-10T12:04:45;3.93;;;1.60;;
75169;SDS011;63749;49.186;9.222;2023-05-10T12:07:11;9.02;;;1.65;;
75169;SDS011;63749;49.186;9.222;2023-05-10T12:09:36;3.43;;;1.50;;
75169;SDS011;63749;49.186;9.222;2023-05-10T12:12:02;4.03;;;1.50;;
75169;SDS011;63749;49.186;9.222;2023-05-10T12:14:27;7.60;;;1.80;;
75169;SDS011;63749;49.186;9.222;2023-05-10T12:16:53;2.58;;;1.70;;
75169;SDS011;63749;49.186;9.222;2023-05-10T12:19:22;3.78;;;1.80;;
75169;SDS011;63749;49.186;9.222;2023-05-10T12:21:47;7.17;;;1.83;;
75169;SDS011;63749;49.186;9.222;2023-05-10T12:24:13;6.85;;;1.95;;
75169;SDS011;63749;49.186;9.222;2023-05-10T12:26:41;5.43;;;1.70;;
75169;SDS011;63749;49.186;9.222;2023-05-10T12:31:51;5.43;;;1.70;;
75169;SDS011;63749;49.186;9.222;2023-05-10T12:34:24;2.50;;;1.50;;
75169;SDS011;63749;49.186;9.222;2023-05-10T12:36:52;4.55;;;1.80;;
75169;SDS011;63749;49.186;9.222;2023-05-10T12:39:17;16.60;;;2.00;;
75169;SDS011;63749;49.186;9.222;2023-05-10T12:41:43;9.80;;;2.07;;
75169;SDS011;63749;49.186;9.222;2023-05-10T12:44:08;8.87;;;1.70;;
75169;SDS011;63749;49.186;9.222;2023-05-10T12:46:33;8.67;;;1.97;;
75169;SDS011;63749;49.186;9.222;2023-05-10T12:48:59;3.03;;;1.77;;
75169;SDS011;63749;49.186;9.222;2023-05-10T12:51:24;5.67;;;2.40;;
75169;SDS011;63749;49.186;9.222;2023-05-10T12:53:49;6.03;;;2.30;;
75169;SDS011;63749;49.186;9.222;2023-05-10T12:56:14;3.00;;;2.23;;
75169;SDS011;63749;49.186;9.222;2023-05-10T12:58:40;3.60;;;2.40;;
75169;SDS011;63749;49.186;9.222;2023-05-10T13:01:05;3.30;;;2.20;;
75169;SDS011;63749;49.186;9.222;2023-05-10T13:03:31;5.70;;;2.10;;
75169;SDS011;63749;49.186;9.222;2023-05-10T13:05:57;3.00;;;2.30;;
75169;SDS011;63749;49.186;9.222;2023-05-10T13:08:22;3.93;;;2.20;;
75169;SDS011;63749;49.186;9.222;2023-05-10T13:10:48;5.70;;;2.00;;
75169;SDS011;63749;49.186;9.222;2023-05-10T13:13:13;2.63;;;2.00;;
75169;SDS011;63749;49.186;9.222;2023-05-10T13:15:39;4.45;;;2.15;;
75169;SDS011;63749;49.186;9.222;2023-05-10T13:18:04;3.47;;;1.80;;
75169;SDS011;63749;49.186;9.222;2023-05-10T13:20:30;3.13;;;1.97;;
75169;SDS011;63749;49.186;9.222;2023-05-10T13:22:55;4.50;;;2.00;;
75169;SDS011;63749;49.186;9.222;2023-05-10T13:25:20;2.73;;;1.70;;
75169;SDS011;63749;49.186;9.222;2023-05-10T13:27:46;4.63;;;1.80;;
75169;SDS011;63749;49.186;9.222;2023-05-10T13:30:11;4.83;;;1.80;;
75169;SDS011;63749;49.186;9.222;2023-05-10T13:32:37;3.22;;;1.83;;
75169;SDS011;63749;49.186;9.222;2023-05-10T13:35:03;3.27;;;2.07;;
75169;SDS011;63749;49.186;9.222;2023-05-10T13:37:29;3.20;;;2.00;;
75169;SDS011;63749;49.186;9.222;2023-05-10T13:39:56;8.23;;;2.15;;
75169;SDS011;63749;49.186;9.222;2023-05-10T13:42:22;4.13;;;2.10;;
75169;SDS011;63749;49.186;9.222;2023-05-10T13:44:48;5.28;;;2.00;;
75169;SDS011;63749;49.186;9.222;2023-05-10T13:47:13;2.73;;;2.00;;
75169;SDS011;63749;49.186;9.222;2023-05-10T13:49:39;8.68;;;2.10;;
75169;SDS011;63749;49.186;9.222;2023-05-10T13:52:04;3.67;;;1.80;;
75169;SDS011;63749;49.186;9.222;2023-05-10T13:54:32;2.88;;;1.80;;
75169;SDS011;63749;49.186;9.222;2023-05-10T13:56:58;1.77;;;1.60;;
75169;SDS011;63749;49.186;9.222;2023-05-10T13:59:24;2.65;;;1.80;;
75169;SDS011;63749;49.186;9.222;2023-05-10T14:01:49;2.70;;;1.60;;
75169;SDS011;63749;49.186;9.222;2023-05-10T14:04:14;3.37;;;1.50;;
75169;SDS011;63749;49.186;9.222;2023-05-10T14:06:40;1.47;;;1.33;;
75169;SDS011;63749;49.186;9.222;2023-05-10T14:09:05;2.47;;;1.42;;
75169;SDS011;63749;49.186;9.222;2023-05-10T14:11:30;5.23;;;1.60;;
75169;SDS011;63749;49.186;9.222;2023-05-10T14:13:56;2.67;;;1.40;;
75169;SDS011;63749;49.186;9.222;2023-05-10T14:16:21;4.20;;;1.70;;
75169;SDS011;63749;49.186;9.222;2023-05-10T14:18:47;3.10;;;1.60;;
75169;SDS011;63749;49.186;9.222;2023-05-10T14:21:12;5.47;;;1.70;;
75169;SDS011;63749;49.186;9.222;2023-05-10T14:23:38;3.97;;;1.80;;
75169;SDS011;63749;49.186;9.222;2023-05-10T14:26:03;4.55;;;1.55;;
75169;SDS011;63749;49.186;9.222;2023-05-10T14:28:29;4.87;;;1.70;;
75169;SDS011;63749;49.186;9.222;2023-05-10T14:30:54;3.97;;;1.50;;
75169;SDS011;63749;49.186;9.222;2023-05-10T14:33:19;2.63;;;1.40;;
75169;SDS011;63749;49.186;9.222;2023-05-10T14:35:45;4.07;;;1.60;;
75169;SDS011;63749;49.186;9.222;2023-05-10T14:38:11;3.15;;;1.50;;
75169;SDS011;63749;49.186;9.222;2023-05-10T14:40:37;3.37;;;1.73;;
75169;SDS011;63749;49.186;9.222;2023-05-10T14:43:02;2.38;;;1.60;;
75169;SDS011;63749;49.186;9.222;2023-05-10T14:45:28;2.60;;;1.40;;
75169;SDS011;63749;49.186;9.222;2023-05-10T14:47:53;2.83;;;1.50;;
75169;SDS011;63749;49.186;9.222;2023-05-10T14:50:19;2.83;;;1.40;;
75169;SDS011;63749;49.186;9.222;2023-05-10T14:52:44;3.40;;;1.50;;
75169;SDS011;63749;49.186;9.222;2023-05-10T14:55:09;5.57;;;1.60;;
75169;SDS011;63749;49.186;9.222;2023-05-10T14:57:35;1.97;;;1.37;;
75169;SDS011;63749;49.186;9.222;2023-05-10T15:00:01;2.30;;;1.43;;
75169;SDS011;63749;49.186;9.222;2023-05-10T15:02:27;3.00;;;1.40;;
75169;SDS011;63749;49.186;9.222;2023-05-10T15:04:52;4.07;;;1.60;;
75169;SDS011;63749;49.186;9.222;2023-05-10T15:07:17;4.28;;;1.80;;
75169;SDS011;63749;49.186;9.222;2023-05-10T15:09:43;3.80;;;1.80;;
75169;SDS011;63749;49.186;9.222;2023-05-10T15:12:09;4.18;;;1.60;;
75169;SDS011;63749;49.186;9.222;2023-05-10T15:14:34;2.10;;;1.73;;
75169;SDS011;63749;49.186;9.222;2023-05-10T15:17:01;2.80;;;1.70;;
75169;SDS011;63749;49.186;9.222;2023-05-10T15:19:26;5.40;;;1.70;;
75169;SDS011;63749;49.186;9.222;2023-05-10T15:21:52;3.70;;;1.53;;
75169;SDS011;63749;49.186;9.222;2023-05-10T15:24:17;3.23;;;1.70;;
75169;SDS011;63749;49.186;9.222;2023-05-10T15:26:43;4.07;;;1.60;;
75169;SDS011;63749;49.186;9.222;2023-05-10T15:29:08;2.03;;;1.60;;
75169;SDS011;63749;49.186;9.222;2023-05-10T15:31:34;3.10;;;1.70;;